Time;durP1;ratioP1;P1;durP2;ratioP2;P2;SDS_P1;SDS_P2;PMS_P1;PMS_P2;Temp;Humidity;BMP_temperature;BMP_pressure;BME280_temperature;BME280_humidity;BME280_pressure;Samples;Min_cycle;Max_cycle;Signal;HPM_P1;HPM_P2
2022/09/08 08:02:35;;;;;;;9.02;7.05;;;;;;;18.35;88.20;100670.97;5404058;27;20439;-68
2022/09/08 08:05:09;;;;;;;8.63;7.00;;;;;;;18.10;86.08;100670.09;5378808;27;20084;-67
2022/09/08 08:08:02;;;;;;;7.95;7.15;;;;;;;18.29;86.29;100677.97;5385667;27;20026;-68
2022/09/08 08:11:00;;;;;;;7.40;6.70;;;;;;;18.28;86.71;100675.50;5376905;27;20023;-68
2022/09/08 08:13:48;;;;;;;7.57;6.88;;;;;;;18.28;85.82;100667.09;5364516;27;20029;-69
2022/09/08 08:16:54;;;;;;;6.57;5.95;;;;;;;18.27;85.84;100668.28;5386846;27;20089;-68
2022/09/08 08:19:52;;;;;;;7.57;5.75;;;;;;;18.36;84.93;100671.81;5327415;27;20435;-69
2022/09/08 08:22:29;;;;;;;9.38;5.60;;;;;;;18.29;84.98;100680.78;5371312;27;20367;-68
2022/09/08 08:25:09;;;;;;;8.27;5.60;;;;;;;18.22;84.80;100672.09;5380320;27;20037;-68
2022/09/08 08:27:53;;;;;;;6.47;5.00;;;;;;;18.51;84.86;100671.16;5368315;27;20099;-69
2022/09/08 08:30:26;;;;;;;6.53;5.57;;;;;;;18.42;84.84;100670.41;5372980;27;20140;-68
2022/09/08 08:33:07;;;;;;;4.60;4.13;;;;;;;18.58;82.37;100671.38;5368900;27;20023;-67
2022/09/08 08:35:49;;;;;;;7.25;4.55;;;;;;;18.57;81.43;100668.94;5369379;27;20485;-68
2022/09/08 08:38:25;;;;;;;5.10;3.15;;;;;;;18.50;80.88;100677.91;5379045;27;20027;-68
2022/09/08 08:41:02;;;;;;;4.60;3.45;;;;;;;18.44;81.05;100670.91;5384277;27;20035;-68
2022/09/08 08:43:58;;;;;;;5.85;3.80;;;;;;;18.64;81.60;100669.19;5386039;27;20106;-68
2022/09/08 08:46:29;;;;;;;;;;;;;;;18.76;80.85;100668.41;5364766;27;20034;-69
2022/09/08 08:49:23;;;;;;;5.63;3.90;;;;;;;18.56;81.84;100670.94;5363302;27;20321;-67
2022/09/08 08:52:11;;;;;;;6.63;4.63;;;;;;;18.57;82.22;100671.75;5375463;27;20400;-68
2022/09/08 08:55:11;;;;;;;5.72;4.50;;;;;;;18.46;82.84;100677.81;5364746;27;20818;-67
2022/09/08 08:58:07;;;;;;;5.00;4.28;;;;;;;18.73;83.50;100677.50;5367626;27;20030;-67
2022/09/08 09:00:47;;;;;;;5.10;3.72;;;;;;;18.93;82.67;100673.81;5363807;27;20043;-69
2022/09/08 09:03:46;;;;;;;5.88;3.30;;;;;;;18.92;81.75;100666.56;5379123;27;20034;-68
2022/09/08 09:06:37;;;;;;;5.78;3.47;;;;;;;18.92;81.56;100666.56;5384651;27;20038;-71
2022/09/08 09:09:30;;;;;;;3.72;2.67;;;;;;;18.93;79.04;100662.56;5373527;27;20034;-70
2022/09/08 09:12:13;;;;;;;5.30;2.25;;;;;;;18.71;79.75;100668.59;5361601;27;20046;-70
2022/09/08 09:15:06;;;;;;;6.20;2.45;;;;;;;18.73;80.42;100672.69;5361201;27;20027;-69
2022/09/08 09:18:08;;;;;;;7.20;3.72;;;;;;;18.71;80.51;100668.59;5348649;27;20031;-68
2022/09/08 09:21:00;;;;;;;4.28;2.50;;;;;;;18.82;79.75;100655.78;5349158;27;20034;-68
2022/09/08 09:23:35;;;;;;;5.53;2.85;;;;;;;18.93;78.32;100661.75;5349256;27;20027;-68
2022/09/08 09:26:17;;;;;;;6.63;3.58;;;;;;;18.79;78.76;100664.88;5366870;27;20022;-68
2022/09/08 09:29:09;;;;;;;11.00;7.40;;;;;;;18.94;78.53;100657.75;5361955;27;20492;-68
2022/09/08 09:32:20;;;;;;;8.30;6.00;;;;;;;19.02;78.96;100666.09;5352001;27;20110;-68
2022/09/08 09:35:18;;;;;;;8.18;3.85;;;;;;;19.22;78.79;100666.28;5352470;27;20049;-68
2022/09/08 09:38:20;;;;;;;4.65;2.40;;;;;;;19.30;77.47;100660.56;5348310;27;20023;-69
2022/09/08 09:41:16;;;;;;;7.28;4.13;;;;;;;19.32;78.23;100668.63;5349116;27;20031;-69
2022/09/08 09:44:06;;;;;;;4.20;2.10;;;;;;;19.50;75.45;100658.75;5347976;27;20489;-69
2022/09/08 09:46:40;;;;;;;7.55;2.42;;;;;;;19.53;74.13;100662.84;5350655;27;20409;-68
2022/09/08 09:49:52;;;;;;;4.68;1.90;;;;;;;19.55;75.85;100666.94;5348436;27;20023;-68
2022/09/08 09:52:50;;;;;;;7.70;3.28;;;;;;;19.71;72.42;100664.25;5347535;27;20075;-68
2022/09/08 09:55:43;;;;;;;5.38;2.25;;;;;;;19.77;71.98;100662.00;5348500;27;20102;-68
2022/09/08 09:58:39;;;;;;;4.40;1.63;;;;;;;20.05;71.95;100664.03;5351334;27;20384;-70
2022/09/08 10:01:47;;;;;;;5.30;2.00;;;;;;;19.89;72.48;100670.41;5364412;27;20050;-69
2022/09/08 10:04:36;;;;;;;2.83;1.65;;;;;;;19.81;72.90;100668.53;5354814;27;20019;-70
2022/09/08 10:07:23;;;;;;;2.58;1.70;;;;;;;20.03;71.89;100667.19;5347722;27;20029;-68
2022/09/08 10:10:24;;;;;;;6.70;2.08;;;;;;;19.77;71.45;100673.25;5348524;27;20041;-68
2022/09/08 10:13:33;;;;;;;6.25;2.03;;;;;;;20.01;70.93;100677.97;5347469;27;20043;-68
2022/09/08 10:16:26;;;;;;;4.05;1.75;;;;;;;20.06;69.74;100674.09;5347990;27;20038;-68
2022/09/08 10:19:21;;;;;;;3.63;1.80;;;;;;;20.06;70.32;100674.09;5349787;27;20513;-68
2022/09/08 10:22:01;;;;;;;4.75;2.10;;;;;;;20.22;70.01;100669.31;5349791;27;20497;-68
2022/09/08 10:24:57;;;;;;;7.88;3.85;;;;;;;20.01;69.34;100679.97;5347265;27;20083;-68
2022/09/08 10:28:06;;;;;;;6.32;2.45;;;;;;;20.00;68.36;100678.34;5347117;27;20122;-67
2022/09/08 10:31:19;;;;;;;8.02;2.25;;;;;;;20.15;68.77;100683.22;5347634;27;20389;-68
2022/09/08 10:34:21;;;;;;;2.85;1.85;;;;;;;20.16;68.85;100682.03;5333328;27;20039;-67
2022/09/08 10:37:10;;;;;;;5.32;2.40;;;;;;;20.38;67.87;100689.09;5359376;27;20051;-67
2022/09/08 10:39:57;;;;;;;5.30;1.70;;;;;;;20.37;68.30;100682.59;5347841;27;20023;-68
2022/09/08 10:42:49;;;;;;;5.07;1.75;;;;;;;20.47;68.04;100677.63;5347928;27;20027;-71
2022/09/08 10:45:40;;;;;;;7.05;1.83;;;;;;;20.14;68.77;100673.94;5347837;27;20039;-70
2022/09/08 10:48:52;;;;;;;4.63;2.00;;;;;;;20.13;69.42;100672.31;5359198;27;20018;-68
2022/09/08 10:51:38;;;;;;;2.83;1.58;;;;;;;20.30;69.16;100665.53;5353096;27;20349;-70
2022/09/08 10:54:37;;;;;;;4.72;2.65;;;;;;;20.33;68.42;100667.63;5352061;27;20372;-69
2022/09/08 10:57:50;;;;;;;5.18;1.95;;;;;;;20.08;70.94;100671.75;5352453;27;20500;-69
2022/09/08 11:00:23;;;;;;;7.25;2.55;;;;;;;20.19;74.65;100667.22;5296852;27;20383;-67
2022/09/08 11:03:19;;;;;;;6.35;1.63;;;;;;;20.21;74.10;100653.59;5356813;27;20041;-68
2022/09/08 11:06:08;;;;;;;6.05;2.55;;;;;;;19.98;76.91;100662.63;5368651;27;20066;-68
2022/09/08 11:08:56;;;;;;;4.63;2.20;;;;;;;20.02;75.48;100659.09;5359923;27;20422;-67
2022/09/08 11:11:50;;;;;;;6.30;2.47;;;;;;;19.93;75.61;100656.44;5354843;27;20515;-67
2022/09/08 11:14:43;;;;;;;4.45;2.17;;;;;;;19.98;75.73;100650.56;5363912;27;20027;-67
2022/09/08 11:17:26;;;;;;;5.63;2.45;;;;;;;20.11;78.48;100648.50;5355482;27;20110;-67
2022/09/08 11:20:22;;;;;;;4.63;1.85;;;;;;;20.26;74.94;100661.78;5368694;27;20030;-67
2022/09/08 11:22:56;;;;;;;;;;;;;;;20.13;74.09;100646.16;5348952;27;20079;-67
2022/09/08 11:25:45;;;;;;;5.70;2.20;;;;;;;20.10;72.00;100655.31;5364869;27;19961;-67
2022/09/08 11:28:28;;;;;;;8.27;2.42;;;;;;;20.02;72.94;100645.00;5359978;27;20026;-67
2022/09/08 11:31:39;;;;;;;3.42;1.85;;;;;;;20.17;70.09;100647.88;5367667;27;20031;-68
2022/09/08 11:34:32;;;;;;;5.53;2.10;;;;;;;20.25;70.53;100646.09;5356743;27;20027;-68
2022/09/08 11:37:31;;;;;;;5.10;2.20;;;;;;;20.22;70.44;100641.16;5351006;27;20458;-68
2022/09/08 11:40:40;;;;;;;8.40;4.15;;;;;;;20.25;70.36;100639.63;5346566;27;20052;-68
2022/09/08 11:43:14;;;;;;;6.05;2.60;;;;;;;20.03;68.48;100639.03;5360629;27;20086;-68
2022/09/08 11:45:55;;;;;;;4.75;2.28;;;;;;;20.15;68.15;100638.16;5357439;27;20454;-68
2022/09/08 11:48:58;;;;;;;5.45;2.33;;;;;;;20.36;67.42;100637.94;5360908;27;20054;-68
2022/09/08 11:51:55;;;;;;;9.32;2.60;;;;;;;20.49;69.63;100642.28;5277184;27;20086;-67
2022/09/08 11:54:53;;;;;;;5.40;2.40;;;;;;;20.68;67.45;100632.34;5328438;27;20549;-67
2022/09/08 11:57:32;;;;;;;6.68;2.85;;;;;;;20.90;64.81;100622.44;5367242;27;20381;-67
2022/09/08 12:00:29;;;;;;;4.88;2.40;;;;;;;20.96;64.41;100626.59;5354773;27;20054;-66
2022/09/08 12:03:30;;;;;;;3.35;2.53;;;;;;;21.09;65.28;100624.47;5357472;27;20035;-67
2022/09/08 12:06:26;;;;;;;4.68;1.98;;;;;;;21.09;62.92;100616.88;5345570;28;20039;-67
2022/09/08 12:09:32;;;;;;;6.30;2.78;;;;;;;21.35;63.22;100610.59;5347118;28;20023;-67
2022/09/08 12:12:19;;;;;;;4.35;1.90;;;;;;;21.55;59.42;100607.81;5350370;27;20065;-66
2022/09/08 12:14:53;;;;;;;4.05;1.88;;;;;;;21.66;58.77;100609.69;5359712;27;20027;-67
2022/09/08 12:17:59;;;;;;;7.45;1.90;;;;;;;21.70;57.95;100609.75;5356574;27;20059;-66
2022/09/08 12:20:48;;;;;;;5.07;1.70;;;;;;;21.75;57.26;100600.19;5345985;27;20027;-66
2022/09/08 12:23:34;;;;;;;4.20;2.00;;;;;;;21.86;57.48;100592.75;5352711;27;20369;-65
2022/09/08 12:26:33;;;;;;;4.85;1.80;;;;;;;21.63;57.87;100599.16;5367146;27;20537;-65
2022/09/08 12:29:40;;;;;;;2.60;1.60;;;;;;;21.48;57.71;100603.66;5367672;27;20023;-65
2022/09/08 12:32:23;;;;;;;3.47;1.77;;;;;;;21.33;58.58;100614.97;5367508;27;20113;-65
2022/09/08 12:35:04;;;;;;;5.32;1.70;;;;;;;21.19;59.35;100613.47;5362740;27;20026;-65
2022/09/08 12:37:48;;;;;;;2.90;1.38;;;;;;;21.10;58.89;100614.84;5362935;27;20415;-65
2022/09/08 12:41:05;;;;;;;3.45;1.35;;;;;;;21.32;59.60;100605.72;5363279;27;20060;-65
2022/09/08 12:43:40;;;;;;;3.78;1.38;;;;;;;21.56;59.92;100599.00;5258694;28;20046;-64
2022/09/08 12:46:15;;;;;;;3.85;1.60;;;;;;;21.44;58.74;100604.78;5259442;28;20025;-66
2022/09/08 12:49:14;;;;;;;4.07;1.63;;;;;;;21.51;58.54;100607.75;5332325;27;20037;-65
2022/09/08 12:51:52;;;;;;;4.35;1.60;;;;;;;21.87;58.35;100598.03;5370302;27;20101;-66
2022/09/08 12:54:42;;;;;;;2.75;1.40;;;;;;;21.86;56.72;100598.41;5354752;27;20030;-68
2022/09/08 12:57:27;;;;;;;4.03;1.65;;;;;;;22.03;56.86;100592.28;5349769;27;20363;-68
2022/09/08 13:00:11;;;;;;;3.47;1.50;;;;;;;21.95;55.18;100601.81;5349119;27;20023;-68
2022/09/08 13:03:04;;;;;;;1.88;1.17;;;;;;;22.11;54.54;100608.19;5349429;27;20023;-67
2022/09/08 13:05:57;;;;;;;3.45;1.90;;;;;;;22.01;55.54;100602.31;5350037;27;20064;-67
2022/09/08 13:09:07;;;;;;;3.35;1.20;;;;;;;21.74;54.78;100592.91;5370287;27;20377;-66
2022/09/08 13:11:58;;;;;;;4.78;1.42;;;;;;;21.74;56.10;100599.38;5282966;28;20065;-65
2022/09/08 13:14:52;;;;;;;4.63;1.60;;;;;;;21.71;55.54;100595.28;5359474;27;20500;-65
2022/09/08 13:17:54;;;;;;;3.47;1.60;;;;;;;22.14;55.77;100584.84;5356919;27;20039;-66
2022/09/08 13:20:41;;;;;;;5.38;1.85;;;;;;;22.05;54.98;100587.06;5369066;27;20027;-66
2022/09/08 13:23:15;;;;;;;3.33;1.23;;;;;;;21.95;55.43;100587.69;5355966;27;20076;-66
2022/09/08 13:26:16;;;;;;;3.25;1.30;;;;;;;21.86;55.58;100595.59;5349857;27;20030;-65
2022/09/08 13:28:59;;;;;;;6.32;3.17;;;;;;;21.75;55.70;100603.00;5368253;27;20029;-65
2022/09/08 13:31:57;;;;;;;5.43;1.60;;;;;;;21.73;55.82;100599.72;5355584;27;20034;-65
2022/09/08 13:34:57;;;;;;;6.30;2.13;;;;;;;21.65;55.47;100604.41;5367798;27;20441;-65
2022/09/08 13:37:59;;;;;;;6.05;2.80;;;;;;;21.73;55.87;100602.56;5363501;27;20027;-65
2022/09/08 13:40:51;;;;;;;3.90;2.08;;;;;;;21.93;55.67;100607.00;5349199;27;20042;-66
2022/09/08 13:43:42;;;;;;;5.50;2.25;;;;;;;21.56;53.83;100596.19;5358340;27;20073;-66
2022/09/08 13:46:23;;;;;;;3.85;1.75;;;;;;;21.99;54.68;100605.53;5367901;27;20029;-65
2022/09/08 13:49:19;;;;;;;9.20;2.38;;;;;;;22.07;54.76;100606.47;5357540;27;20023;-65
2022/09/08 13:52:11;;;;;;;7.20;2.30;;;;;;;22.02;54.32;100604.78;5347835;27;20050;-66
2022/09/08 13:54:53;;;;;;;4.18;2.00;;;;;;;21.69;53.49;100603.31;5359783;27;20030;-67
2022/09/08 13:57:56;;;;;;;13.25;4.35;;;;;;;21.87;53.72;100597.22;5369224;27;20115;-65
2022/09/08 14:00:28;;;;;;;5.57;2.15;;;;;;;21.80;53.41;100606.34;5368806;27;20096;-67
2022/09/08 14:03:05;;;;;;;5.50;2.00;;;;;;;21.97;54.06;100609.91;5349038;27;20027;-66
2022/09/08 14:05:45;;;;;;;19.88;17.83;;;;;;;21.82;53.47;100606.78;5348525;27;20023;-66
2022/09/08 14:08:25;;;;;;;6.65;2.30;;;;;;;21.84;53.31;100609.25;5370033;27;20042;-66
2022/09/08 14:11:35;;;;;;;3.95;2.00;;;;;;;21.91;53.67;100600.94;5369163;27;20110;-66
2022/09/08 14:14:15;;;;;;;5.68;2.25;;;;;;;21.90;53.29;100602.09;5354789;27;20393;-66
2022/09/08 14:16:46;;;;;;;5.18;1.83;;;;;;;21.91;53.24;100609.41;5368447;27;20030;-66
2022/09/08 14:19:49;;;;;;;7.30;1.60;;;;;;;21.74;53.60;100598.56;5361174;27;20071;-67
2022/09/08 14:22:42;;;;;;;8.73;2.15;;;;;;;21.59;53.21;100603.09;5355024;27;20034;-65
2022/09/08 14:25:20;;;;;;;5.05;1.65;;;;;;;21.78;54.21;100605.06;5368689;27;20035;-65
2022/09/08 14:27:58;;;;;;;5.05;2.13;;;;;;;21.71;54.76;100614.22;5369798;27;20457;-67
2022/09/08 14:30:50;;;;;;;4.32;2.17;;;;;;;21.68;55.52;100626.25;5368467;27;20026;-66
2022/09/08 14:33:37;;;;;;;6.85;1.73;;;;;;;21.78;56.65;100627.66;5368752;27;20026;-66
2022/09/08 14:36:39;;;;;;;3.63;1.80;;;;;;;21.64;58.06;100629.00;5363587;27;20053;-65
2022/09/08 14:39:28;;;;;;;4.50;2.15;;;;;;;21.71;58.07;100626.34;5367340;27;20035;-66
2022/09/08 14:42:20;;;;;;;3.53;1.73;;;;;;;21.62;58.74;100620.06;5356521;27;20489;-66
2022/09/08 14:45:05;;;;;;;5.28;1.80;;;;;;;21.39;59.57;100627.63;5350379;27;20024;-65
2022/09/08 14:47:57;;;;;;;5.20;1.98;;;;;;;21.26;61.16;100638.19;5365539;27;20026;-66
2022/09/08 14:50:55;;;;;;;10.27;3.35;;;;;;;21.16;66.69;100631.09;5351286;27;20216;-68
2022/09/08 14:53:53;;;;;;;8.43;3.05;;;;;;;21.24;65.35;100637.72;5354117;27;20034;-67
2022/09/08 14:56:30;;;;;;;9.68;2.80;;;;;;;20.73;69.36;100632.88;5369087;27;20469;-66
2022/09/08 14:59:23;;;;;;;7.32;2.25;;;;;;;20.81;68.54;100637.53;5367131;27;20037;-67
2022/09/08 15:02:23;;;;;;;7.45;2.90;;;;;;;20.77;71.59;100633.78;5366013;27;20095;-66
2022/09/08 15:05:21;;;;;;;6.93;2.42;;;;;;;20.85;69.85;100644.06;5355454;27;20561;-66
2022/09/08 15:08:01;;;;;;;7.65;3.13;;;;;;;20.69;72.49;100629.16;5334903;27;20123;-67
2022/09/08 15:10:57;;;;;;;6.28;2.10;;;;;;;20.70;70.44;100627.97;5363279;27;20038;-66
2022/09/08 15:13:33;;;;;;;5.72;3.10;;;;;;;20.55;72.12;100632.41;5362992;27;20098;-65
2022/09/08 15:16:18;;;;;;;6.38;2.20;;;;;;;20.59;72.47;100624.88;5345869;27;20110;-65
2022/09/08 15:18:57;;;;;;;5.60;3.00;;;;;;;20.74;74.61;100617.63;5352845;27;20376;-66
2022/09/08 15:21:46;;;;;;;5.50;2.00;;;;;;;20.72;72.93;100617.16;5367789;27;20015;-66
2022/09/08 15:24:33;;;;;;;5.70;2.42;;;;;;;20.92;73.64;100609.59;5366425;27;20065;-65
2022/09/08 15:27:21;;;;;;;4.35;1.88;;;;;;;21.22;69.21;100603.47;5359481;27;20015;-66
2022/09/08 15:30:17;;;;;;;4.65;2.10;;;;;;;20.99;69.30;100611.78;5367708;27;20023;-65
2022/09/08 15:32:49;;;;;;;6.13;1.58;;;;;;;20.78;67.59;100600.78;5345077;27;20087;-66
2022/09/08 15:35:42;;;;;;;4.35;2.55;;;;;;;21.19;67.50;100595.72;5348279;27;20027;-66
2022/09/08 15:38:20;;;;;;;4.53;2.25;;;;;;;21.25;65.60;100603.53;5346781;27;20366;-66
2022/09/08 15:41:10;;;;;;;4.32;1.85;;;;;;;21.39;65.15;100594.59;5346317;27;20031;-66
2022/09/08 15:44:00;;;;;;;4.53;3.20;;;;;;;21.36;63.76;100600.13;5355638;27;20110;-67
2022/09/08 15:47:05;;;;;;;2.83;1.85;;;;;;;21.59;61.81;100592.59;5367299;27;20388;-66
2022/09/08 15:49:49;;;;;;;3.95;1.48;;;;;;;21.31;62.97;100589.94;5366204;27;20536;-66
2022/09/08 15:52:46;;;;;;;2.22;1.05;;;;;;;21.40;62.14;100589.78;5368185;27;20038;-67
2022/09/08 15:55:35;;;;;;;5.50;1.35;;;;;;;21.38;61.28;100592.97;5357947;27;20072;-67
2022/09/08 15:58:28;;;;;;;2.50;1.67;;;;;;;21.36;60.70;100594.50;5364346;27;20027;-67
2022/09/08 16:01:15;;;;;;;4.82;1.23;;;;;;;21.30;60.81;100596.78;5357786;27;20138;-66
2022/09/08 16:04:18;;;;;;;2.50;1.02;;;;;;;21.42;60.34;100612.78;5349056;27;20027;-67
2022/09/08 16:07:24;;;;;;;3.90;1.20;;;;;;;21.57;60.67;100600.63;5345851;27;20032;-66
2022/09/08 16:10:02;;;;;;;4.47;1.27;;;;;;;21.48;60.39;100589.56;5325707;27;20031;-67
2022/09/08 16:12:44;;;;;;;3.03;1.35;;;;;;;21.47;59.94;100598.38;5345599;28;20116;-68
2022/09/08 16:15:26;;;;;;;1.77;0.98;;;;;;;21.38;60.70;100598.59;5347053;27;20095;-67
2022/09/08 16:18:04;;;;;;;4.47;1.13;;;;;;;21.20;61.43;100603.00;5356495;27;20031;-67
2022/09/08 16:20:58;;;;;;;4.03;1.42;;;;;;;21.08;61.59;100589.84;5349145;27;20028;-67
2022/09/08 16:23:47;;;;;;;5.28;1.70;;;;;;;21.02;62.63;100591.31;5371631;27;20026;-66
2022/09/08 16:26:27;;;;;;;2.85;1.40;;;;;;;20.85;63.40;100593.31;5362310;27;20011;-67
2022/09/08 16:29:20;;;;;;;3.53;1.60;;;;;;;20.75;64.26;100601.53;5355643;27;20427;-67
2022/09/08 16:32:00;;;;;;;14.38;13.00;;;;;;;20.73;63.80;100601.88;5349575;27;20051;-67
2022/09/08 16:34:33;;;;;;;4.90;3.38;;;;;;;20.71;64.36;100604.25;5363596;27;20026;-66
2022/09/08 16:37:09;;;;;;;2.42;1.30;;;;;;;20.50;64.44;100609.31;5363176;27;20019;-68
2022/09/08 16:40:00;;;;;;;5.70;2.20;;;;;;;20.58;64.52;100594.25;5365537;27;20037;-68
2022/09/08 16:42:43;;;;;;;5.95;2.55;;;;;;;20.47;63.99;100595.97;5366375;27;20055;-68
2022/09/08 16:45:23;;;;;;;4.55;1.95;;;;;;;20.41;64.47;100599.03;5358327;27;20496;-68
2022/09/08 16:47:57;;;;;;;3.90;1.60;;;;;;;20.42;64.56;100592.22;5356984;27;20075;-69
2022/09/08 16:50:31;;;;;;;6.05;2.85;;;;;;;20.45;65.14;100598.31;5362061;27;20477;-68
2022/09/08 16:53:37;;;;;;;6.38;2.78;;;;;;;20.41;64.88;100615.94;5362480;27;20027;-68
2022/09/08 16:56:27;;;;;;;4.60;2.17;;;;;;;20.36;65.26;100610.56;5349983;27;20019;-69
2022/09/08 16:59:29;;;;;;;4.65;1.83;;;;;;;20.41;65.03;100615.13;5349800;27;20031;-67
2022/09/08 17:02:28;;;;;;;3.30;1.83;;;;;;;20.38;64.89;100605.41;5348693;27;20108;-69
2022/09/08 17:05:15;;;;;;;4.90;2.10;;;;;;;20.32;65.44;100600.41;5353023;27;20026;-68
2022/09/08 17:08:06;;;;;;;4.43;1.75;;;;;;;20.28;66.36;100599.50;5355062;27;20042;-68
2022/09/08 17:10:49;;;;;;;5.45;2.30;;;;;;;20.20;66.50;100595.69;5367066;27;20031;-68
2022/09/08 17:13:26;;;;;;;4.13;1.65;;;;;;;20.12;67.33;100599.44;5370993;27;20097;-68
2022/09/08 17:16:10;;;;;;;7.85;2.10;;;;;;;20.28;67.76;100589.03;5370583;27;20172;-69
2022/09/08 17:19:08;;;;;;;2.83;1.60;;;;;;;20.38;66.42;100590.50;5370974;27;20023;-67
2022/09/08 17:22:07;;;;;;;5.60;2.03;;;;;;;20.28;67.33;100585.41;5367785;27;20306;-69
2022/09/08 17:24:58;;;;;;;3.63;1.58;;;;;;;20.22;67.59;100582.03;5362080;27;20432;-69
2022/09/08 17:27:42;;;;;;;5.85;2.60;;;;;;;20.27;67.33;100583.75;5367655;27;20027;-69
2022/09/08 17:30:18;;;;;;;5.20;1.92;;;;;;;20.26;66.50;100593.41;5370026;27;20035;-68
2022/09/08 17:33:07;;;;;;;3.28;1.80;;;;;;;20.17;67.19;100594.41;5370489;27;20018;-68
